sensor_id;sensor_type;location;lat;lon;timestamp;P1;durP1;ratioP1;P2;durP2;ratioP2
34988;SDS011;21192;40.182;44.516;2023-08-20T00:01:29;15.02;;;4.50;;
34988;SDS011;21192;40.182;44.516;2023-08-20T00:03:55;15.00;;;4.97;;
34988;SDS011;21192;40.182;44.516;2023-08-20T00:06:22;13.38;;;4.70;;
34988;SDS011;21192;40.182;44.516;2023-08-20T00:08:48;16.88;;;4.75;;
34988;SDS011;21192;40.182;44.516;2023-08-20T00:11:15;10.32;;;4.00;;
34988;SDS011;21192;40.182;44.516;2023-08-20T00:13:41;11.45;;;4.20;;
34988;SDS011;21192;40.182;44.516;2023-08-20T00:16:07;12.80;;;3.85;;
34988;SDS011;21192;40.182;44.516;2023-08-20T00:18:34;13.90;;;5.00;;
34988;SDS011;21192;40.182;44.516;2023-08-20T00:21:00;12.68;;;4.70;;
34988;SDS011;21192;40.182;44.516;2023-08-20T00:23:26;12.85;;;4.20;;
34988;SDS011;21192;40.182;44.516;2023-08-20T00:25:52;11.75;;;4.15;;
34988;SDS011;21192;40.182;44.516;2023-08-20T00:28:19;13.95;;;5.05;;
34988;SDS011;21192;40.182;44.516;2023-08-20T00:30:46;17.73;;;4.65;;
34988;SDS011;21192;40.182;44.516;2023-08-20T00:33:12;10.98;;;4.40;;
34988;SDS011;21192;40.182;44.516;2023-08-20T00:35:38;13.77;;;4.50;;
34988;SDS011;21192;40.182;44.516;2023-08-20T00:38:04;9.95;;;4.05;;
34988;SDS011;21192;40.182;44.516;2023-08-20T00:40:30;12.68;;;4.53;;
34988;SDS011;21192;40.182;44.516;2023-08-20T00:42:56;15.82;;;4.07;;
34988;SDS011;21192;40.182;44.516;2023-08-20T00:45:22;9.82;;;3.92;;
34988;SDS011;21192;40.182;44.516;2023-08-20T00:47:49;15.50;;;4.72;;
34988;SDS011;21192;40.182;44.516;2023-08-20T00:50:16;9.93;;;4.00;;
34988;SDS011;21192;40.182;44.516;2023-08-20T00:52:43;11.75;;;4.68;;
34988;SDS011;21192;40.182;44.516;2023-08-20T00:55:10;15.77;;;4.40;;
34988;SDS011;21192;40.182;44.516;2023-08-20T00:57:38;12.52;;;4.07;;
34988;SDS011;21192;40.182;44.516;2023-08-20T01:00:05;12.90;;;4.22;;
34988;SDS011;21192;40.182;44.516;2023-08-20T01:02:34;13.25;;;4.40;;
34988;SDS011;21192;40.182;44.516;2023-08-20T01:05:01;18.13;;;4.10;;
34988;SDS011;21192;40.182;44.516;2023-08-20T01:07:38;16.67;;;4.72;;
34988;SDS011;21192;40.182;44.516;2023-08-20T01:13:21;11.38;;;4.57;;
34988;SDS011;21192;40.182;44.516;2023-08-20T01:15:47;11.80;;;3.90;;
34988;SDS011;21192;40.182;44.516;2023-08-20T01:18:13;10.68;;;3.55;;
34988;SDS011;21192;40.182;44.516;2023-08-20T01:20:45;13.23;;;4.20;;
34988;SDS011;21192;40.182;44.516;2023-08-20T01:28:34;13.45;;;3.75;;
34988;SDS011;21192;40.182;44.516;2023-08-20T01:31:01;15.00;;;3.90;;
34988;SDS011;21192;40.182;44.516;2023-08-20T01:33:28;11.02;;;4.10;;
34988;SDS011;21192;40.182;44.516;2023-08-20T01:35:55;14.48;;;4.10;;
34988;SDS011;21192;40.182;44.516;2023-08-20T01:38:22;13.20;;;4.25;;
34988;SDS011;21192;40.182;44.516;2023-08-20T01:40:48;11.75;;;4.47;;
34988;SDS011;21192;40.182;44.516;2023-08-20T01:43:14;13.18;;;4.15;;
34988;SDS011;21192;40.182;44.516;2023-08-20T01:45:40;11.32;;;4.20;;
34988;SDS011;21192;40.182;44.516;2023-08-20T01:48:06;14.57;;;4.35;;
34988;SDS011;21192;40.182;44.516;2023-08-20T01:50:33;10.00;;;4.50;;
34988;SDS011;21192;40.182;44.516;2023-08-20T01:53:00;10.38;;;4.32;;
34988;SDS011;21192;40.182;44.516;2023-08-20T01:55:30;10.57;;;3.85;;
34988;SDS011;21192;40.182;44.516;2023-08-20T01:57:56;10.05;;;4.28;;
34988;SDS011;21192;40.182;44.516;2023-08-20T02:00:22;13.93;;;4.43;;
34988;SDS011;21192;40.182;44.516;2023-08-20T02:02:48;6.82;;;3.88;;
34988;SDS011;21192;40.182;44.516;2023-08-20T02:05:14;9.95;;;4.00;;
34988;SDS011;21192;40.182;44.516;2023-08-20T02:07:40;13.80;;;4.22;;
34988;SDS011;21192;40.182;44.516;2023-08-20T02:10:06;10.85;;;4.45;;
34988;SDS011;21192;40.182;44.516;2023-08-20T02:12:32;12.48;;;3.70;;
34988;SDS011;21192;40.182;44.516;2023-08-20T02:14:58;13.90;;;4.40;;
34988;SDS011;21192;40.182;44.516;2023-08-20T02:17:24;13.10;;;3.50;;
34988;SDS011;21192;40.182;44.516;2023-08-20T02:19:50;11.38;;;4.28;;
34988;SDS011;21192;40.182;44.516;2023-08-20T02:22:16;17.08;;;4.35;;
34988;SDS011;21192;40.182;44.516;2023-08-20T02:24:42;13.00;;;4.60;;
34988;SDS011;21192;40.182;44.516;2023-08-20T02:27:08;13.73;;;5.07;;
34988;SDS011;21192;40.182;44.516;2023-08-20T02:29:34;14.60;;;3.63;;
34988;SDS011;21192;40.182;44.516;2023-08-20T02:31:59;11.88;;;4.25;;
34988;SDS011;21192;40.182;44.516;2023-08-20T02:34:25;12.55;;;4.05;;
34988;SDS011;21192;40.182;44.516;2023-08-20T02:36:51;12.73;;;3.95;;
34988;SDS011;21192;40.182;44.516;2023-08-20T02:39:17;10.57;;;4.05;;
34988;SDS011;21192;40.182;44.516;2023-08-20T02:41:43;13.50;;;4.55;;
34988;SDS011;21192;40.182;44.516;2023-08-20T02:44:09;11.80;;;4.22;;
34988;SDS011;21192;40.182;44.516;2023-08-20T02:46:34;12.48;;;4.25;;
34988;SDS011;21192;40.182;44.516;2023-08-20T02:49:00;13.43;;;4.65;;
34988;SDS011;21192;40.182;44.516;2023-08-20T02:51:26;17.20;;;4.05;;
34988;SDS011;21192;40.182;44.516;2023-08-20T02:53:52;10.73;;;4.15;;
34988;SDS011;21192;40.182;44.516;2023-08-20T02:56:18;15.75;;;4.50;;
34988;SDS011;21192;40.182;44.516;2023-08-20T02:58:44;9.65;;;4.40;;
34988;SDS011;21192;40.182;44.516;2023-08-20T03:01:23;14.02;;;4.47;;
34988;SDS011;21192;40.182;44.516;2023-08-20T03:03:50;16.95;;;4.18;;
34988;SDS011;21192;40.182;44.516;2023-08-20T03:06:16;15.25;;;4.28;;
34988;SDS011;21192;40.182;44.516;2023-08-20T03:08:42;13.15;;;4.85;;
34988;SDS011;21192;40.182;44.516;2023-08-20T03:11:08;11.18;;;3.75;;
34988;SDS011;21192;40.182;44.516;2023-08-20T03:13:34;11.18;;;4.60;;
34988;SDS011;21192;40.182;44.516;2023-08-20T03:16:00;9.82;;;3.80;;
34988;SDS011;21192;40.182;44.516;2023-08-20T03:18:28;10.80;;;4.15;;
34988;SDS011;21192;40.182;44.516;2023-08-20T03:20:55;10.68;;;4.45;;
34988;SDS011;21192;40.182;44.516;2023-08-20T03:23:21;12.88;;;3.92;;
34988;SDS011;21192;40.182;44.516;2023-08-20T03:25:48;11.43;;;4.75;;
34988;SDS011;21192;40.182;44.516;2023-08-20T03:28:14;12.98;;;4.43;;
34988;SDS011;21192;40.182;44.516;2023-08-20T03:30:41;12.95;;;3.92;;
34988;SDS011;21192;40.182;44.516;2023-08-20T03:33:07;12.00;;;4.30;;
34988;SDS011;21192;40.182;44.516;2023-08-20T03:35:32;12.52;;;4.18;;
34988;SDS011;21192;40.182;44.516;2023-08-20T03:37:58;11.05;;;4.40;;
34988;SDS011;21192;40.182;44.516;2023-08-20T03:40:24;12.80;;;4.43;;
34988;SDS011;21192;40.182;44.516;2023-08-20T03:42:50;9.07;;;4.00;;
34988;SDS011;21192;40.182;44.516;2023-08-20T03:45:16;12.02;;;3.85;;
34988;SDS011;21192;40.182;44.516;2023-08-20T03:47:41;11.07;;;4.63;;
34988;SDS011;21192;40.182;44.516;2023-08-20T03:50:09;11.07;;;4.15;;
34988;SDS011;21192;40.182;44.516;2023-08-20T03:52:35;12.32;;;3.80;;
34988;SDS011;21192;40.182;44.516;2023-08-20T03:55:02;13.93;;;4.18;;
34988;SDS011;21192;40.182;44.516;2023-08-20T03:57:28;12.07;;;4.35;;
34988;SDS011;21192;40.182;44.516;2023-08-20T03:59:54;8.02;;;3.97;;
34988;SDS011;21192;40.182;44.516;2023-08-20T04:02:19;19.10;;;4.13;;
34988;SDS011;21192;40.182;44.516;2023-08-20T04:04:45;12.30;;;3.85;;
34988;SDS011;21192;40.182;44.516;2023-08-20T04:07:11;14.13;;;3.60;;
34988;SDS011;21192;40.182;44.516;2023-08-20T04:09:37;13.48;;;4.47;;
34988;SDS011;21192;40.182;44.516;2023-08-20T04:12:03;12.30;;;4.55;;
34988;SDS011;21192;40.182;44.516;2023-08-20T04:14:30;17.17;;;4.82;;
34988;SDS011;21192;40.182;44.516;2023-08-20T04:16:56;8.30;;;3.85;;
34988;SDS011;21192;40.182;44.516;2023-08-20T04:19:21;9.73;;;4.18;;
34988;SDS011;21192;40.182;44.516;2023-08-20T04:21:47;14.82;;;4.50;;
34988;SDS011;21192;40.182;44.516;2023-08-20T04:24:13;17.95;;;4.30;;
34988;SDS011;21192;40.182;44.516;2023-08-20T04:26:39;11.00;;;3.97;;
34988;SDS011;21192;40.182;44.516;2023-08-20T04:29:05;17.90;;;4.10;;
34988;SDS011;21192;40.182;44.516;2023-08-20T04:31:31;12.30;;;4.20;;
34988;SDS011;21192;40.182;44.516;2023-08-20T04:33:57;15.27;;;3.97;;
34988;SDS011;21192;40.182;44.516;2023-08-20T04:36:22;15.75;;;4.20;;
34988;SDS011;21192;40.182;44.516;2023-08-20T04:38:48;15.85;;;4.35;;
34988;SDS011;21192;40.182;44.516;2023-08-20T04:41:14;9.38;;;3.63;;
34988;SDS011;21192;40.182;44.516;2023-08-20T04:43:40;14.65;;;4.22;;
34988;SDS011;21192;40.182;44.516;2023-08-20T04:46:06;12.85;;;3.95;;
34988;SDS011;21192;40.182;44.516;2023-08-20T04:48:31;14.23;;;4.47;;
34988;SDS011;21192;40.182;44.516;2023-08-20T04:50:57;15.27;;;4.20;;
34988;SDS011;21192;40.182;44.516;2023-08-20T04:53:25;11.65;;;4.32;;
34988;SDS011;21192;40.182;44.516;2023-08-20T04:55:51;14.05;;;3.63;;
34988;SDS011;21192;40.182;44.516;2023-08-20T04:58:17;14.35;;;4.10;;
34988;SDS011;21192;40.182;44.516;2023-08-20T05:00:42;11.18;;;3.85;;
34988;SDS011;21192;40.182;44.516;2023-08-20T05:03:08;14.15;;;4.22;;
34988;SDS011;21192;40.182;44.516;2023-08-20T05:05:34;15.68;;;3.97;;
34988;SDS011;21192;40.182;44.516;2023-08-20T05:08:00;12.70;;;4.25;;
34988;SDS011;21192;40.182;44.516;2023-08-20T05:10:26;14.20;;;4.60;;
34988;SDS011;21192;40.182;44.516;2023-08-20T05:12:52;13.88;;;4.07;;
34988;SDS011;21192;40.182;44.516;2023-08-20T05:15:17;12.88;;;4.05;;
34988;SDS011;21192;40.182;44.516;2023-08-20T05:17:43;13.98;;;4.20;;
34988;SDS011;21192;40.182;44.516;2023-08-20T05:20:09;10.82;;;3.55;;
34988;SDS011;21192;40.182;44.516;2023-08-20T05:22:35;13.13;;;3.92;;
34988;SDS011;21192;40.182;44.516;2023-08-20T05:25:01;13.82;;;4.07;;
34988;SDS011;21192;40.182;44.516;2023-08-20T05:27:27;11.13;;;3.97;;
34988;SDS011;21192;40.182;44.516;2023-08-20T05:29:53;14.25;;;4.45;;
34988;SDS011;21192;40.182;44.516;2023-08-20T05:32:18;11.25;;;4.30;;
34988;SDS011;21192;40.182;44.516;2023-08-20T05:34:44;15.18;;;4.35;;
34988;SDS011;21192;40.182;44.516;2023-08-20T05:37:13;14.85;;;4.80;;
34988;SDS011;21192;40.182;44.516;2023-08-20T05:39:42;18.42;;;4.82;;
34988;SDS011;21192;40.182;44.516;2023-08-20T05:42:08;18.70;;;4.75;;
34988;SDS011;21192;40.182;44.516;2023-08-20T05:44:34;18.83;;;5.32;;
34988;SDS011;21192;40.182;44.516;2023-08-20T05:47:01;15.57;;;4.82;;
34988;SDS011;21192;40.182;44.516;2023-08-20T05:49:27;14.52;;;4.72;;
34988;SDS011;21192;40.182;44.516;2023-08-20T05:51:53;17.73;;;5.60;;
34988;SDS011;21192;40.182;44.516;2023-08-20T05:54:19;19.63;;;5.88;;
34988;SDS011;21192;40.182;44.516;2023-08-20T05:56:45;16.15;;;4.95;;
34988;SDS011;21192;40.182;44.516;2023-08-20T05:59:11;20.27;;;5.63;;
34988;SDS011;21192;40.182;44.516;2023-08-20T06:01:36;18.85;;;5.47;;
34988;SDS011;21192;40.182;44.516;2023-08-20T06:04:02;18.00;;;5.30;;
34988;SDS011;21192;40.182;44.516;2023-08-20T06:06:28;17.65;;;5.63;;
34988;SDS011;21192;40.182;44.516;2023-08-20T06:08:54;17.95;;;5.30;;
34988;SDS011;21192;40.182;44.516;2023-08-20T06:11:20;10.82;;;4.47;;
34988;SDS011;21192;40.182;44.516;2023-08-20T06:13:46;15.82;;;4.78;;
34988;SDS011;21192;40.182;44.516;2023-08-20T06:16:12;14.88;;;4.97;;
34988;SDS011;21192;40.182;44.516;2023-08-20T06:18:38;20.58;;;5.20;;
34988;SDS011;21192;40.182;44.516;2023-08-20T06:21:04;15.02;;;5.55;;
34988;SDS011;21192;40.182;44.516;2023-08-20T06:23:30;18.25;;;5.80;;
34988;SDS011;21192;40.182;44.516;2023-08-20T06:25:55;19.50;;;5.93;;
34988;SDS011;21192;40.182;44.516;2023-08-20T06:28:21;18.00;;;5.43;;
34988;SDS011;21192;40.182;44.516;2023-08-20T06:30:47;30.00;;;7.70;;
34988;SDS011;21192;40.182;44.516;2023-08-20T06:33:13;15.88;;;6.78;;
34988;SDS011;21192;40.182;44.516;2023-08-20T06:35:39;24.27;;;8.25;;
34988;SDS011;21192;40.182;44.516;2023-08-20T06:38:06;24.75;;;7.72;;
34988;SDS011;21192;40.182;44.516;2023-08-20T06:40:32;20.42;;;7.35;;
34988;SDS011;21192;40.182;44.516;2023-08-20T06:42:58;20.85;;;8.05;;
34988;SDS011;21192;40.182;44.516;2023-08-20T06:45:24;19.98;;;7.10;;
34988;SDS011;21192;40.182;44.516;2023-08-20T06:47:50;15.05;;;6.63;;
34988;SDS011;21192;40.182;44.516;2023-08-20T06:50:15;18.45;;;6.20;;
34988;SDS011;21192;40.182;44.516;2023-08-20T06:52:42;19.55;;;5.93;;
34988;SDS011;21192;40.182;44.516;2023-08-20T06:55:08;15.10;;;5.43;;
34988;SDS011;21192;40.182;44.516;2023-08-20T06:57:34;15.40;;;6.05;;
34988;SDS011;21192;40.182;44.516;2023-08-20T07:00:00;17.58;;;5.97;;
34988;SDS011;21192;40.182;44.516;2023-08-20T07:02:26;18.02;;;6.20;;
34988;SDS011;21192;40.182;44.516;2023-08-20T07:04:52;21.52;;;6.78;;
34988;SDS011;21192;40.182;44.516;2023-08-20T07:07:17;16.85;;;5.70;;
34988;SDS011;21192;40.182;44.516;2023-08-20T07:09:43;11.65;;;4.55;;
34988;SDS011;21192;40.182;44.516;2023-08-20T07:12:09;13.02;;;5.82;;
34988;SDS011;21192;40.182;44.516;2023-08-20T07:14:35;13.63;;;4.90;;
34988;SDS011;21192;40.182;44.516;2023-08-20T07:17:01;17.90;;;5.45;;
34988;SDS011;21192;40.182;44.516;2023-08-20T07:19:28;16.67;;;5.70;;
34988;SDS011;21192;40.182;44.516;2023-08-20T07:21:54;22.02;;;6.65;;
34988;SDS011;21192;40.182;44.516;2023-08-20T07:24:22;12.75;;;5.25;;
34988;SDS011;21192;40.182;44.516;2023-08-20T07:26:53;17.27;;;5.70;;
34988;SDS011;21192;40.182;44.516;2023-08-20T07:29:24;17.33;;;6.35;;
34988;SDS011;21192;40.182;44.516;2023-08-20T07:31:50;28.27;;;6.90;;
34988;SDS011;21192;40.182;44.516;2023-08-20T07:34:16;17.90;;;5.75;;
34988;SDS011;21192;40.182;44.516;2023-08-20T07:36:42;16.45;;;5.95;;
34988;SDS011;21192;40.182;44.516;2023-08-20T07:39:08;19.33;;;6.13;;
34988;SDS011;21192;40.182;44.516;2023-08-20T07:41:34;16.10;;;4.82;;
34988;SDS011;21192;40.182;44.516;2023-08-20T07:43:59;17.83;;;5.75;;
34988;SDS011;21192;40.182;44.516;2023-08-20T07:46:25;20.42;;;6.63;;
34988;SDS011;21192;40.182;44.516;2023-08-20T07:48:51;20.80;;;6.30;;
34988;SDS011;21192;40.182;44.516;2023-08-20T07:51:17;18.02;;;6.50;;
34988;SDS011;21192;40.182;44.516;2023-08-20T07:53:43;27.98;;;6.75;;
34988;SDS011;21192;40.182;44.516;2023-08-20T07:56:09;85.65;;;12.70;;
34988;SDS011;21192;40.182;44.516;2023-08-20T07:58:35;37.13;;;8.65;;
34988;SDS011;21192;40.182;44.516;2023-08-20T08:01:01;22.48;;;6.70;;
34988;SDS011;21192;40.182;44.516;2023-08-20T08:03:26;15.40;;;5.75;;
34988;SDS011;21192;40.182;44.516;2023-08-20T08:05:52;25.50;;;7.25;;
34988;SDS011;21192;40.182;44.516;2023-08-20T08:08:19;18.10;;;5.80;;
34988;SDS011;21192;40.182;44.516;2023-08-20T08:10:45;24.08;;;6.38;;
34988;SDS011;21192;40.182;44.516;2023-08-20T08:13:12;32.42;;;7.25;;
34988;SDS011;21192;40.182;44.516;2023-08-20T08:15:39;23.98;;;7.28;;
34988;SDS011;21192;40.182;44.516;2023-08-20T08:18:06;24.52;;;6.70;;
34988;SDS011;21192;40.182;44.516;2023-08-20T08:20:32;25.63;;;6.68;;
34988;SDS011;21192;40.182;44.516;2023-08-20T08:22:58;16.50;;;6.95;;
34988;SDS011;21192;40.182;44.516;2023-08-20T08:25:25;19.90;;;6.53;;
34988;SDS011;21192;40.182;44.516;2023-08-20T08:27:51;21.27;;;5.68;;
34988;SDS011;21192;40.182;44.516;2023-08-20T08:30:17;18.40;;;5.57;;
34988;SDS011;21192;40.182;44.516;2023-08-20T08:32:43;21.15;;;8.68;;
34988;SDS011;21192;40.182;44.516;2023-08-20T08:35:09;22.52;;;7.28;;
34988;SDS011;21192;40.182;44.516;2023-08-20T08:37:35;30.00;;;8.18;;
34988;SDS011;21192;40.182;44.516;2023-08-20T08:40:01;21.58;;;7.20;;
34988;SDS011;21192;40.182;44.516;2023-08-20T08:42:30;24.40;;;5.85;;
34988;SDS011;21192;40.182;44.516;2023-08-20T08:44:59;15.05;;;5.57;;
34988;SDS011;21192;40.182;44.516;2023-08-20T08:47:25;19.08;;;7.10;;
34988;SDS011;21192;40.182;44.516;2023-08-20T08:49:51;23.42;;;6.65;;
34988;SDS011;21192;40.182;44.516;2023-08-20T08:52:19;22.95;;;5.65;;
34988;SDS011;21192;40.182;44.516;2023-08-20T08:54:47;18.42;;;6.22;;
34988;SDS011;21192;40.182;44.516;2023-08-20T08:57:14;15.80;;;6.63;;
34988;SDS011;21192;40.182;44.516;2023-08-20T08:59:41;20.70;;;6.50;;
34988;SDS011;21192;40.182;44.516;2023-08-20T09:02:08;16.50;;;5.20;;
34988;SDS011;21192;40.182;44.516;2023-08-20T09:04:38;20.08;;;6.28;;
34988;SDS011;21192;40.182;44.516;2023-08-20T09:07:11;16.48;;;5.88;;
34988;SDS011;21192;40.182;44.516;2023-08-20T09:09:41;16.20;;;5.20;;
34988;SDS011;21192;40.182;44.516;2023-08-20T09:12:17;21.88;;;5.72;;
34988;SDS011;21192;40.182;44.516;2023-08-20T09:14:50;24.85;;;7.68;;
34988;SDS011;21192;40.182;44.516;2023-08-20T09:17:17;18.27;;;6.25;;
34988;SDS011;21192;40.182;44.516;2023-08-20T09:19:46;19.33;;;8.48;;
34988;SDS011;21192;40.182;44.516;2023-08-20T09:22:13;20.48;;;6.55;;
34988;SDS011;21192;40.182;44.516;2023-08-20T09:24:46;28.30;;;5.95;;
34988;SDS011;21192;40.182;44.516;2023-08-20T09:27:12;23.90;;;6.90;;
34988;SDS011;21192;40.182;44.516;2023-08-20T09:32:29;19.20;;;6.93;;
34988;SDS011;21192;40.182;44.516;2023-08-20T09:34:55;19.30;;;7.53;;
34988;SDS011;21192;40.182;44.516;2023-08-20T09:37:22;21.30;;;6.50;;
34988;SDS011;21192;40.182;44.516;2023-08-20T09:39:49;18.70;;;7.47;;
34988;SDS011;21192;40.182;44.516;2023-08-20T09:42:15;25.80;;;8.40;;
34988;SDS011;21192;40.182;44.516;2023-08-20T09:44:44;21.38;;;7.63;;
34988;SDS011;21192;40.182;44.516;2023-08-20T09:47:12;24.35;;;6.50;;
34988;SDS011;21192;40.182;44.516;2023-08-20T09:49:43;14.02;;;6.22;;
34988;SDS011;21192;40.182;44.516;2023-08-20T09:52:11;19.17;;;6.40;;
34988;SDS011;21192;40.182;44.516;2023-08-20T09:54:54;19.70;;;6.28;;
34988;SDS011;21192;40.182;44.516;2023-08-20T09:57:28;17.48;;;6.07;;
34988;SDS011;21192;40.182;44.516;2023-08-20T10:00:00;28.33;;;8.30;;
34988;SDS011;21192;40.182;44.516;2023-08-20T10:02:28;28.40;;;8.88;;
34988;SDS011;21192;40.182;44.516;2023-08-20T10:04:54;21.95;;;7.78;;
34988;SDS011;21192;40.182;44.516;2023-08-20T10:07:21;19.08;;;7.32;;
34988;SDS011;21192;40.182;44.516;2023-08-20T10:09:49;19.58;;;6.50;;
34988;SDS011;21192;40.182;44.516;2023-08-20T10:12:17;18.85;;;6.15;;
34988;SDS011;21192;40.182;44.516;2023-08-20T10:14:43;15.10;;;5.90;;
34988;SDS011;21192;40.182;44.516;2023-08-20T10:17:09;19.00;;;5.80;;
34988;SDS011;21192;40.182;44.516;2023-08-20T10:19:37;26.10;;;6.70;;
34988;SDS011;21192;40.182;44.516;2023-08-20T10:22:03;26.38;;;8.15;;
34988;SDS011;21192;40.182;44.516;2023-08-20T10:24:46;15.68;;;5.97;;
34988;SDS011;21192;40.182;44.516;2023-08-20T10:27:23;23.08;;;6.53;;
34988;SDS011;21192;40.182;44.516;2023-08-20T10:29:52;30.05;;;7.30;;
34988;SDS011;21192;40.182;44.516;2023-08-20T10:32:18;16.88;;;5.57;;
34988;SDS011;21192;40.182;44.516;2023-08-20T10:34:49;12.20;;;4.60;;
34988;SDS011;21192;40.182;44.516;2023-08-20T10:37:25;10.98;;;4.72;;
34988;SDS011;21192;40.182;44.516;2023-08-20T10:39:55;17.08;;;5.25;;
34988;SDS011;21192;40.182;44.516;2023-08-20T10:42:22;17.35;;;5.63;;
34988;SDS011;21192;40.182;44.516;2023-08-20T10:44:58;15.70;;;5.75;;
34988;SDS011;21192;40.182;44.516;2023-08-20T10:47:42;13.98;;;5.38;;
34988;SDS011;21192;40.182;44.516;2023-08-20T10:50:15;16.45;;;7.13;;
34988;SDS011;21192;40.182;44.516;2023-08-20T10:52:41;21.38;;;6.57;;
34988;SDS011;21192;40.182;44.516;2023-08-20T10:55:22;28.60;;;8.02;;
34988;SDS011;21192;40.182;44.516;2023-08-20T10:57:55;21.17;;;7.38;;
34988;SDS011;21192;40.182;44.516;2023-08-20T11:00:22;27.42;;;6.53;;
34988;SDS011;21192;40.182;44.516;2023-08-20T11:02:49;24.30;;;7.38;;
34988;SDS011;21192;40.182;44.516;2023-08-20T11:05:18;18.13;;;5.90;;
34988;SDS011;21192;40.182;44.516;2023-08-20T11:07:48;19.20;;;7.10;;
34988;SDS011;21192;40.182;44.516;2023-08-20T11:10:15;23.15;;;7.57;;
34988;SDS011;21192;40.182;44.516;2023-08-20T11:12:42;19.13;;;6.28;;
34988;SDS011;21192;40.182;44.516;2023-08-20T11:15:10;22.00;;;6.72;;
34988;SDS011;21192;40.182;44.516;2023-08-20T11:17:42;19.63;;;7.10;;
34988;SDS011;21192;40.182;44.516;2023-08-20T11:20:13;20.52;;;6.93;;
34988;SDS011;21192;40.182;44.516;2023-08-20T11:22:40;28.23;;;8.02;;
34988;SDS011;21192;40.182;44.516;2023-08-20T11:25:10;15.80;;;5.53;;
34988;SDS011;21192;40.182;44.516;2023-08-20T11:27:40;21.75;;;6.85;;
34988;SDS011;21192;40.182;44.516;2023-08-20T11:30:09;22.85;;;6.60;;
34988;SDS011;21192;40.182;44.516;2023-08-20T11:32:38;30.85;;;7.85;;
34988;SDS011;21192;40.182;44.516;2023-08-20T11:35:05;19.45;;;5.93;;
34988;SDS011;21192;40.182;44.516;2023-08-20T11:37:32;20.55;;;6.68;;
34988;SDS011;21192;40.182;44.516;2023-08-20T11:39:58;17.10;;;6.50;;
34988;SDS011;21192;40.182;44.516;2023-08-20T11:42:24;22.88;;;5.88;;
34988;SDS011;21192;40.182;44.516;2023-08-20T11:44:51;20.13;;;5.82;;
34988;SDS011;21192;40.182;44.516;2023-08-20T11:47:21;23.42;;;7.05;;
34988;SDS011;21192;40.182;44.516;2023-08-20T11:49:47;22.70;;;7.43;;
34988;SDS011;21192;40.182;44.516;2023-08-20T11:52:13;13.57;;;5.18;;
34988;SDS011;21192;40.182;44.516;2023-08-20T11:54:38;12.75;;;4.32;;
34988;SDS011;21192;40.182;44.516;2023-08-20T11:57:05;22.02;;;6.32;;
34988;SDS011;21192;40.182;44.516;2023-08-20T11:59:32;20.15;;;5.05;;
34988;SDS011;21192;40.182;44.516;2023-08-20T12:01:59;15.85;;;4.75;;
34988;SDS011;21192;40.182;44.516;2023-08-20T12:04:27;17.92;;;4.68;;
34988;SDS011;21192;40.182;44.516;2023-08-20T12:07:13;17.70;;;5.22;;
34988;SDS011;21192;40.182;44.516;2023-08-20T12:09:39;23.08;;;6.70;;
34988;SDS011;21192;40.182;44.516;2023-08-20T12:12:07;21.48;;;6.32;;
34988;SDS011;21192;40.182;44.516;2023-08-20T12:14:34;23.00;;;7.50;;
34988;SDS011;21192;40.182;44.516;2023-08-20T12:17:00;23.55;;;6.30;;
34988;SDS011;21192;40.182;44.516;2023-08-20T12:19:28;17.83;;;6.00;;
34988;SDS011;21192;40.182;44.516;2023-08-20T12:21:54;17.00;;;5.13;;
34988;SDS011;21192;40.182;44.516;2023-08-20T12:24:20;20.35;;;5.95;;
34988;SDS011;21192;40.182;44.516;2023-08-20T12:26:46;25.38;;;6.60;;
34988;SDS011;21192;40.182;44.516;2023-08-20T12:29:12;24.33;;;7.50;;
34988;SDS011;21192;40.182;44.516;2023-08-20T12:31:38;31.30;;;9.00;;
34988;SDS011;21192;40.182;44.516;2023-08-20T12:34:05;17.50;;;6.20;;
34988;SDS011;21192;40.182;44.516;2023-08-20T12:36:31;19.88;;;6.72;;
34988;SDS011;21192;40.182;44.516;2023-08-20T12:38:57;19.83;;;6.07;;
34988;SDS011;21192;40.182;44.516;2023-08-20T12:41:23;28.20;;;8.20;;
34988;SDS011;21192;40.182;44.516;2023-08-20T12:43:48;22.27;;;7.25;;
34988;SDS011;21192;40.182;44.516;2023-08-20T12:46:14;22.60;;;7.38;;
34988;SDS011;21192;40.182;44.516;2023-08-20T12:48:41;24.73;;;6.85;;
34988;SDS011;21192;40.182;44.516;2023-08-20T12:51:07;17.67;;;6.70;;
34988;SDS011;21192;40.182;44.516;2023-08-20T12:53:33;18.80;;;5.20;;
34988;SDS011;21192;40.182;44.516;2023-08-20T12:55:59;30.77;;;12.95;;
34988;SDS011;21192;40.182;44.516;2023-08-20T12:58:25;20.30;;;6.38;;
34988;SDS011;21192;40.182;44.516;2023-08-20T13:00:51;19.20;;;7.60;;
34988;SDS011;21192;40.182;44.516;2023-08-20T13:03:17;21.17;;;5.78;;
34988;SDS011;21192;40.182;44.516;2023-08-20T13:05:44;17.00;;;4.85;;
34988;SDS011;21192;40.182;44.516;2023-08-20T13:08:10;14.50;;;3.72;;
34988;SDS011;21192;40.182;44.516;2023-08-20T13:10:38;16.05;;;4.47;;
34988;SDS011;21192;40.182;44.516;2023-08-20T13:13:05;14.07;;;4.47;;
34988;SDS011;21192;40.182;44.516;2023-08-20T13:15:35;18.75;;;4.72;;
34988;SDS011;21192;40.182;44.516;2023-08-20T13:18:02;14.18;;;4.80;;
34988;SDS011;21192;40.182;44.516;2023-08-20T13:20:29;16.83;;;4.78;;
34988;SDS011;21192;40.182;44.516;2023-08-20T13:22:55;11.48;;;4.38;;
34988;SDS011;21192;40.182;44.516;2023-08-20T13:25:20;17.38;;;4.88;;
34988;SDS011;21192;40.182;44.516;2023-08-20T13:27:46;17.23;;;4.47;;
34988;SDS011;21192;40.182;44.516;2023-08-20T13:30:13;19.80;;;5.43;;
34988;SDS011;21192;40.182;44.516;2023-08-20T13:32:39;32.42;;;5.55;;
34988;SDS011;21192;40.182;44.516;2023-08-20T13:35:05;25.67;;;5.38;;
34988;SDS011;21192;40.182;44.516;2023-08-20T13:37:31;20.70;;;4.80;;
34988;SDS011;21192;40.182;44.516;2023-08-20T13:39:58;18.23;;;4.70;;
34988;SDS011;21192;40.182;44.516;2023-08-20T13:42:24;19.13;;;4.57;;
34988;SDS011;21192;40.182;44.516;2023-08-20T13:44:50;10.27;;;3.70;;
34988;SDS011;21192;40.182;44.516;2023-08-20T13:47:16;17.13;;;3.63;;
34988;SDS011;21192;40.182;44.516;2023-08-20T13:49:42;17.00;;;4.00;;
34988;SDS011;21192;40.182;44.516;2023-08-20T13:52:09;22.00;;;4.78;;
34988;SDS011;21192;40.182;44.516;2023-08-20T13:54:35;14.30;;;3.78;;
34988;SDS011;21192;40.182;44.516;2023-08-20T13:57:02;15.05;;;4.00;;
34988;SDS011;21192;40.182;44.516;2023-08-20T13:59:29;19.98;;;4.40;;
34988;SDS011;21192;40.182;44.516;2023-08-20T14:01:55;16.52;;;4.25;;
34988;SDS011;21192;40.182;44.516;2023-08-20T14:04:21;15.02;;;3.83;;
34988;SDS011;21192;40.182;44.516;2023-08-20T14:06:48;20.50;;;4.70;;
34988;SDS011;21192;40.182;44.516;2023-08-20T14:09:14;17.27;;;4.40;;
34988;SDS011;21192;40.182;44.516;2023-08-20T14:11:42;19.27;;;5.15;;
34988;SDS011;21192;40.182;44.516;2023-08-20T14:14:08;17.27;;;5.40;;
34988;SDS011;21192;40.182;44.516;2023-08-20T14:16:34;17.15;;;4.50;;
34988;SDS011;21192;40.182;44.516;2023-08-20T14:19:00;22.52;;;4.93;;
34988;SDS011;21192;40.182;44.516;2023-08-20T14:21:26;18.15;;;4.75;;
34988;SDS011;21192;40.182;44.516;2023-08-20T14:23:52;17.35;;;4.78;;
34988;SDS011;21192;40.182;44.516;2023-08-20T14:26:18;17.73;;;4.78;;
34988;SDS011;21192;40.182;44.516;2023-08-20T14:28:44;14.35;;;4.43;;
34988;SDS011;21192;40.182;44.516;2023-08-20T14:31:10;15.80;;;5.32;;